createdAt,value
2023-03-23T15:58:54.612Z,41.86
2023-03-23T16:01:26.588Z,41.89
2023-03-23T16:04:12.685Z,41.67
2023-03-23T16:06:43.032Z,41.64
2023-03-23T16:09:19.368Z,41.61
2023-03-23T16:11:50.467Z,41.61
2023-03-23T16:14:19.405Z,41.68
2023-03-23T16:16:50.962Z,41.83
2023-03-23T16:19:24.514Z,41.92
2023-03-23T16:21:53.915Z,42.03
2023-03-23T16:24:24.854Z,42.08
2023-03-23T16:26:53.471Z,42.10
2023-03-23T16:29:40.626Z,42.18
2023-03-23T16:32:14.803Z,42.33
2023-03-23T16:34:43.105Z,42.28
2023-03-23T16:37:12.246Z,42.41
2023-03-23T16:39:42.450Z,42.35
2023-03-23T16:42:10.948Z,42.40
2023-03-23T16:44:41.483Z,42.50
2023-03-23T16:47:10.229Z,42.68
2023-03-23T16:49:38.500Z,42.67
2023-03-23T16:52:07.166Z,42.69
2023-03-23T16:54:35.709Z,42.81
2023-03-23T16:57:05.726Z,42.75
2023-03-23T16:59:33.986Z,42.83
2023-03-23T17:02:04.085Z,42.94
2023-03-23T17:04:34.924Z,42.99
2023-03-23T17:07:03.995Z,43.17
2023-03-23T17:09:32.359Z,43.23
2023-03-23T17:12:02.761Z,43.32
2023-03-23T17:14:31.225Z,43.31
2023-03-23T17:17:10.140Z,43.35
2023-03-23T17:19:39.683Z,43.42
2023-03-23T17:22:08.116Z,43.42
2023-03-23T17:24:41.385Z,43.44
2023-03-23T17:27:10.453Z,43.59
2023-03-23T17:29:39.172Z,43.67
2023-03-23T17:32:07.676Z,43.70
2023-03-23T17:34:36.109Z,43.77
2023-03-23T17:37:07.190Z,43.86
2023-03-23T17:39:42.598Z,44.03
2023-03-23T17:42:12.013Z,44.07
2023-03-23T17:44:42.005Z,44.20
2023-03-23T17:47:11.216Z,44.27
2023-03-23T17:49:40.116Z,44.43
2023-03-23T17:52:08.936Z,44.56
2023-03-23T17:54:37.176Z,44.61
2023-03-23T17:57:06.934Z,44.68
2023-03-23T17:59:35.853Z,44.88
2023-03-23T18:02:04.226Z,45.04
2023-03-23T18:04:32.920Z,45.14
2023-03-23T18:07:01.279Z,45.18
2023-03-23T18:09:29.975Z,45.27
2023-03-23T18:11:58.553Z,45.42
2023-03-23T18:14:27.058Z,45.55
2023-03-23T18:16:58.197Z,45.68
2023-03-23T18:19:26.827Z,45.88
2023-03-23T18:21:55.545Z,45.91
2023-03-23T18:24:24.121Z,46.10
2023-03-23T18:26:52.349Z,46.22
2023-03-23T18:29:20.718Z,46.34
2023-03-23T18:31:49.884Z,46.46
2023-03-23T18:34:18.457Z,46.60
2023-03-23T18:36:47.453Z,46.77
2023-03-23T18:39:15.829Z,46.93
2023-03-23T18:41:44.637Z,47.08
2023-03-23T18:44:13.018Z,47.20
2023-03-23T18:46:42.239Z,47.31
2023-03-23T18:49:10.649Z,47.47
2023-03-23T18:51:39.116Z,47.54
2023-03-23T18:54:08.833Z,47.65
2023-03-23T18:56:38.367Z,47.70
2023-03-23T18:59:08.022Z,47.85
2023-03-23T19:01:36.763Z,48.02
2023-03-23T19:04:07.207Z,48.06
2023-03-23T19:06:36.208Z,48.23
2023-03-23T19:09:04.963Z,48.31
2023-03-23T19:11:38.747Z,48.48
2023-03-23T19:14:07.360Z,48.60
2023-03-23T19:16:36.791Z,48.69
2023-03-23T19:19:13.045Z,48.83
2023-03-23T19:21:43.791Z,48.95
2023-03-23T19:24:14.355Z,49.08
2023-03-23T19:26:44.265Z,49.22
2023-03-23T19:31:53.557Z,49.42
2023-03-23T19:34:22.188Z,49.50
2023-03-23T19:36:55.171Z,49.51
2023-03-23T19:39:32.834Z,49.55
2023-03-23T19:42:01.373Z,49.73
2023-03-23T19:44:29.727Z,49.80
2023-03-23T19:46:58.985Z,49.92
2023-03-23T19:49:27.582Z,50.05
2023-03-23T19:52:09.035Z,50.20
2023-03-23T19:54:39.464Z,50.46
2023-03-23T19:57:10.241Z,50.58
2023-03-23T19:59:39.232Z,50.70
2023-03-23T20:02:08.269Z,50.90
2023-03-23T20:04:40.077Z,51.04
2023-03-23T20:07:09.946Z,51.19
2023-03-23T20:09:38.964Z,51.29
2023-03-23T20:12:12.961Z,51.41
2023-03-23T20:14:45.407Z,51.54
2023-03-23T20:17:14.830Z,51.57
2023-03-23T20:19:45.681Z,51.61
2023-03-23T20:22:14.796Z,51.72
2023-03-23T20:24:48.282Z,51.63
2023-03-23T20:27:17.726Z,51.84
2023-03-23T20:29:46.552Z,51.83
2023-03-23T20:32:17.747Z,51.94
2023-03-23T20:34:49.933Z,51.98
2023-03-23T20:37:20.943Z,52.12
2023-03-23T20:39:51.429Z,52.03
2023-03-23T20:42:19.855Z,52.15
2023-03-23T20:44:48.926Z,52.31
2023-03-23T20:47:18.008Z,52.30
2023-03-23T20:49:52.660Z,52.36
2023-03-23T20:52:23.595Z,52.53
2023-03-23T20:54:55.123Z,52.64
2023-03-23T20:57:23.404Z,52.66
2023-03-23T20:59:53.522Z,52.79
2023-03-23T21:02:22.369Z,52.87
2023-03-23T21:04:53.197Z,52.94
2023-03-23T21:07:23.940Z,52.98
2023-03-23T21:09:52.585Z,53.18
2023-03-23T21:12:23.495Z,53.52
2023-03-23T21:14:52.391Z,53.96
2023-03-23T21:17:21.156Z,54.28
2023-03-23T21:19:56.945Z,54.37
2023-03-23T21:22:27.470Z,54.43
2023-03-23T21:24:56.020Z,54.81
2023-03-23T21:27:24.250Z,55.09
2023-03-23T21:29:59.397Z,55.51
2023-03-23T21:32:28.589Z,55.64
2023-03-23T21:35:02.795Z,55.56
2023-03-23T21:37:32.196Z,55.62
2023-03-23T21:40:13.646Z,55.91
2023-03-23T21:42:44.822Z,56.27
2023-03-23T21:45:14.401Z,56.64
2023-03-23T21:47:45.012Z,56.80
2023-03-23T21:50:14.446Z,56.75
2023-03-23T21:52:43.370Z,56.50
2023-03-23T21:55:12.582Z,56.53
2023-03-23T21:57:42.323Z,56.57
2023-03-23T22:00:14.970Z,56.36
2023-03-23T22:02:45.829Z,56.25
2023-03-23T22:05:14.102Z,56.28
2023-03-23T22:07:46.456Z,56.32
2023-03-23T22:10:15.689Z,56.28
2023-03-23T22:12:43.997Z,56.43
2023-03-23T22:15:19.077Z,56.57
2023-03-23T22:17:47.702Z,56.43
2023-03-23T22:20:15.970Z,56.47
2023-03-23T22:22:46.496Z,56.43
2023-03-23T22:25:15.307Z,56.51
2023-03-23T22:27:44.864Z,56.34
2023-03-23T22:30:13.603Z,56.49
2023-03-23T22:32:42.304Z,56.40
2023-03-23T22:35:12.806Z,56.36
2023-03-23T22:37:41.923Z,56.46
2023-03-23T22:40:11.707Z,56.61
2023-03-23T22:42:40.828Z,56.61
2023-03-23T22:45:09.789Z,56.58
2023-03-23T22:47:38.902Z,56.51
2023-03-23T22:50:08.471Z,56.56
2023-03-23T22:52:37.513Z,56.45
2023-03-23T22:55:08.478Z,56.41
2023-03-23T22:57:37.864Z,56.46
2023-03-23T23:00:09.011Z,56.32
2023-03-23T23:02:37.723Z,56.65
2023-03-23T23:05:06.161Z,56.58
2023-03-23T23:07:36.408Z,56.39
2023-03-23T23:10:05.483Z,56.62
2023-03-23T23:12:35.494Z,56.48
2023-03-23T23:15:06.026Z,56.40
2023-03-23T23:17:35.031Z,56.52
2023-03-23T23:20:05.710Z,56.50
2023-03-23T23:22:36.712Z,56.66
2023-03-23T23:25:06.622Z,56.73
2023-03-23T23:27:35.674Z,56.73
2023-03-23T23:30:06.996Z,56.76
2023-03-23T23:32:57.638Z,56.61
2023-03-23T23:35:26.271Z,56.70
2023-03-23T23:37:55.802Z,56.70
2023-03-23T23:40:24.014Z,56.73
2023-03-23T23:42:53.851Z,56.59
2023-03-23T23:45:22.601Z,56.74
2023-03-23T23:47:59.500Z,56.75
2023-03-23T23:50:28.095Z,56.71
2023-03-23T23:52:58.703Z,56.67
2023-03-23T23:55:27.202Z,56.50
2023-03-23T23:57:56.189Z,56.61
